Time,TemperatureF,DewpointF,PressureIn,WindDirection,WindDirectionDegrees,WindSpeedMPH,WindSpeedGustMPH,Humidity,HourlyPrecipIn,Conditions,Clouds,dailyrainin,SoftwareType,DateUTC
2013-01-26 00:02:00,50.0,46.0,30.08,NNE,18,0.0,0.0,86,0.00,,,0.01,,2013-01-26 08:02:00,
2013-01-26 00:11:00,50.0,46.0,30.08,NNE,18,0.0,0.0,86,0.00,,,0.01,,2013-01-26 08:11:00,
2013-01-26 00:21:00,50.0,46.0,30.08,NNE,18,0.0,0.0,86,0.00,,,0.01,,2013-01-26 08:21:00,
2013-01-26 00:31:00,50.0,46.0,30.07,NNE,18,0.0,0.0,86,0.00,,,0.01,,2013-01-26 08:31:00,
2013-01-26 00:41:00,50.0,46.0,30.07,NNE,18,0.0,0.0,86,0.00,,,0.01,,2013-01-26 08:41:00,
2013-01-26 00:53:00,49.0,45.0,30.07,NNE,18,0.0,0.0,86,0.00,,,0.01,,2013-01-26 08:53:00,
2013-01-26 01:01:00,49.0,45.0,30.06,NNE,18,0.0,0.0,86,0.00,,,0.01,,2013-01-26 09:01:00,
2013-01-26 01:11:00,49.0,45.0,30.06,NNE,18,0.0,0.0,86,0.00,,,0.01,,2013-01-26 09:11:00,
2013-01-26 01:22:00,49.0,45.0,30.06,NNE,18,0.0,0.0,86,0.00,,,0.01,,2013-01-26 09:22:00,
2013-01-26 01:31:00,49.0,45.0,30.06,NNE,18,0.0,0.0,86,0.00,,,0.01,,2013-01-26 09:31:00,
2013-01-26 01:42:00,49.0,45.0,30.06,NNE,18,0.0,0.0,86,0.00,,,0.01,,2013-01-26 09:42:00,
2013-01-26 01:52:00,49.0,45.0,30.06,NNE,18,0.0,0.0,86,0.00,,,0.01,,2013-01-26 09:52:00,
2013-01-26 02:01:00,49.0,45.0,30.06,NNE,18,0.0,0.0,86,0.00,,,0.01,,2013-01-26 10:01:00,
2013-01-26 02:21:00,47.0,43.0,30.06,NNE,18,0.0,0.0,87,0.00,,,0.01,,2013-01-26 10:21:00,
2013-01-26 02:31:00,47.0,43.0,30.06,NNE,18,0.0,0.0,87,0.00,,,0.01,,2013-01-26 10:31:00,
2013-01-26 02:42:00,47.0,43.0,30.06,NNE,18,0.0,0.0,87,0.00,,,0.01,,2013-01-26 10:42:00,
2013-01-26 02:52:00,47.0,43.0,30.06,NNE,18,0.0,0.0,86,0.00,,,0.01,,2013-01-26 10:52:00,
2013-01-26 03:01:00,46.0,42.0,30.06,NNE,18,0.0,0.0,87,0.00,,,0.01,,2013-01-26 11:01:00,
2013-01-26 03:12:00,46.0,42.0,30.06,NNE,18,0.0,0.0,87,0.00,,,0.01,,2013-01-26 11:12:00,
2013-01-26 03:21:00,46.0,42.0,30.06,NNE,18,0.0,0.0,87,0.00,,,0.01,,2013-01-26 11:21:00,
2013-01-26 03:32:00,46.0,42.0,30.05,NNE,18,0.0,0.0,87,0.00,,,0.00,,2013-01-26 11:32:00,
2013-01-26 03:42:00,46.0,42.0,30.05,NNE,18,0.0,0.0,87,0.00,,,0.00,,2013-01-26 11:42:00,
2013-01-26 03:52:00,46.0,42.0,30.05,NNE,18,0.0,0.0,87,0.00,,,0.00,,2013-01-26 11:52:00,
2013-01-26 04:01:00,46.0,42.0,30.05,NNE,18,0.0,0.0,87,0.00,,,0.00,,2013-01-26 12:01:00,
2013-01-26 04:12:00,46.0,42.0,30.05,NNE,18,0.0,0.0,87,0.00,,,0.00,,2013-01-26 12:12:00,
2013-01-26 04:22:00,45.0,41.0,30.05,NNE,18,0.0,0.0,87,0.00,,,0.00,,2013-01-26 12:22:00,
2013-01-26 04:33:00,45.0,41.0,30.05,NNE,18,0.0,0.0,87,0.00,,,0.00,,2013-01-26 12:33:00,
2013-01-26 04:42:00,45.0,41.0,30.05,NNE,18,0.0,0.0,87,0.00,,,0.00,,2013-01-26 12:42:00,
2013-01-26 04:52:00,45.0,42.0,30.05,NNE,18,0.0,0.0,88,0.00,,,0.00,,2013-01-26 12:52:00,
2013-01-26 05:03:00,46.0,43.0,30.04,NNE,18,0.0,0.0,88,0.00,,,0.00,,2013-01-26 13:03:00,
2013-01-26 05:12:00,46.0,43.0,30.04,NNE,18,0.0,0.0,88,0.00,,,0.00,,2013-01-26 13:12:00,
2013-01-26 05:22:00,46.0,43.0,30.04,NNE,18,0.0,0.0,88,0.00,,,0.00,,2013-01-26 13:22:00,
2013-01-26 05:32:00,46.0,43.0,30.04,NNE,18,0.0,0.0,88,0.00,,,0.00,,2013-01-26 13:32:00,
2013-01-26 05:42:00,46.0,43.0,30.04,NNE,18,0.0,0.0,88,0.00,,,0.00,,2013-01-26 13:42:00,
2013-01-26 05:52:00,47.0,44.0,30.04,NNE,18,0.0,0.0,88,0.00,,,0.00,,2013-01-26 13:52:00,
2013-01-26 06:02:00,47.0,44.0,30.04,NNE,18,0.0,0.0,89,0.00,,,0.00,,2013-01-26 14:02:00,
2013-01-26 06:11:00,47.0,44.0,30.04,NNE,18,0.0,0.0,89,0.00,,,0.00,,2013-01-26 14:11:00,
2013-01-26 06:21:00,47.0,44.0,30.04,NNE,18,0.0,0.0,89,0.00,,,0.00,,2013-01-26 14:21:00,
2013-01-26 06:31:00,47.0,44.0,30.05,NNE,18,0.0,0.0,89,0.00,,,0.00,,2013-01-26 14:31:00,
2013-01-26 06:42:00,47.0,44.0,30.05,NNE,18,0.0,0.0,89,0.00,,,0.00,,2013-01-26 14:42:00,
2013-01-26 06:53:00,47.0,44.0,30.05,NNE,18,0.0,0.0,89,0.00,,,0.00,,2013-01-26 14:53:00,
2013-01-26 07:02:00,48.0,45.0,30.05,NNE,18,0.0,0.0,89,0.00,,,0.00,,2013-01-26 15:02:00,
2013-01-26 07:11:00,48.0,45.0,30.05,NNE,18,0.0,0.0,89,0.00,,,0.00,,2013-01-26 15:11:00,
2013-01-26 07:21:00,48.0,45.0,30.05,NNE,18,0.0,0.0,89,0.00,,,0.00,,2013-01-26 15:21:00,
2013-01-26 07:32:00,47.0,44.0,30.05,NNE,18,0.0,0.0,89,0.00,,,0.00,,2013-01-26 15:32:00,
2013-01-26 07:42:00,47.0,44.0,30.05,NNE,18,0.0,0.0,89,0.00,,,0.00,,2013-01-26 15:42:00,
2013-01-26 07:52:00,47.0,44.0,30.05,NNE,18,0.0,0.0,89,0.00,,,0.00,,2013-01-26 15:52:00,
2013-01-26 08:01:00,47.0,44.0,30.05,NNE,18,0.0,0.0,89,0.00,,,0.00,,2013-01-26 16:01:00,
2013-01-26 08:12:00,47.0,44.0,30.05,NNE,18,0.0,0.0,89,0.00,,,0.00,,2013-01-26 16:12:00,
2013-01-26 08:21:00,47.0,44.0,30.05,NNE,18,0.0,0.0,89,0.00,,,0.00,,2013-01-26 16:21:00,
2013-01-26 08:31:00,47.0,44.0,30.06,NNE,18,0.0,0.0,89,0.00,,,0.00,,2013-01-26 16:31:00,
2013-01-26 08:43:00,47.0,44.0,30.06,NNE,18,0.0,0.0,89,0.00,,,0.00,,2013-01-26 16:43:00,
2013-01-26 08:53:00,48.0,45.0,30.06,NNE,18,0.0,0.0,90,0.00,,,0.00,,2013-01-26 16:53:00,
2013-01-26 09:02:00,48.0,45.0,30.06,NNE,18,0.0,0.0,90,0.00,,,0.00,,2013-01-26 17:02:00,
2013-01-26 09:12:00,48.0,45.0,30.06,NNE,18,0.0,0.0,90,0.00,,,0.00,,2013-01-26 17:12:00,
2013-01-26 09:21:00,50.0,47.0,30.06,WSW,244,0.0,4.0,90,0.00,,,0.00,,2013-01-26 17:21:00,
2013-01-26 09:32:00,50.0,47.0,30.06,WSW,250,0.0,1.0,90,0.00,,,0.00,,2013-01-26 17:32:00,
2013-01-26 09:41:00,50.0,47.0,30.06,WSW,250,0.0,1.0,90,0.00,,,0.00,,2013-01-26 17:41:00,
2013-01-26 09:52:00,50.0,47.0,30.07,West,279,0.0,3.0,89,0.00,,,0.00,,2013-01-26 17:52:00,
2013-01-26 10:02:00,52.0,45.0,30.07,North,355,0.0,2.0,77,0.00,,,0.00,,2013-01-26 18:02:00,
2013-01-26 10:11:00,52.0,45.0,30.07,North,355,0.0,2.0,77,0.00,,,0.00,,2013-01-26 18:11:00,
2013-01-26 10:22:00,54.0,44.0,30.07,West,281,0.0,3.0,69,0.00,,,0.00,,2013-01-26 18:22:00,
2013-01-26 10:32:00,54.0,44.0,30.07,West,281,0.0,3.0,69,0.00,,,0.00,,2013-01-26 18:32:00,
2013-01-26 10:41:00,54.0,44.0,30.07,West,281,0.0,3.0,69,0.00,,,0.00,,2013-01-26 18:41:00,
2013-01-26 10:52:00,56.0,43.0,30.08,NW,309,0.0,5.0,61,0.00,,,0.00,,2013-01-26 18:52:00,
2013-01-26 11:03:00,57.0,41.0,30.07,WSW,254,0.0,8.0,56,0.00,,,0.00,,2013-01-26 19:03:00,
2013-01-26 11:11:00,57.0,41.0,30.07,WSW,254,0.0,8.0,56,0.00,,,0.00,,2013-01-26 19:11:00,
2013-01-26 11:22:00,57.0,42.0,30.08,SW,233,1.0,8.0,57,0.00,,,0.00,,2013-01-26 19:22:00,
2013-01-26 11:32:00,57.0,42.0,30.08,SW,233,1.0,8.0,57,0.00,,,0.00,,2013-01-26 19:32:00,
2013-01-26 11:42:00,57.0,42.0,30.08,SW,233,1.0,8.0,57,0.00,,,0.00,,2013-01-26 19:42:00,
2013-01-26 11:52:00,57.0,39.0,30.07,NW,305,1.0,8.0,51,0.00,,,0.00,,2013-01-26 19:52:00,
2013-01-26 12:02:00,56.0,39.0,30.06,NW,317,1.0,6.0,52,0.00,,,0.00,,2013-01-26 20:02:00,
2013-01-26 12:11:00,56.0,39.0,30.06,NW,317,1.0,6.0,52,0.00,,,0.00,,2013-01-26 20:11:00,
2013-01-26 12:21:00,57.0,41.0,30.06,NW,321,1.0,6.0,55,0.00,,,0.00,,2013-01-26 20:21:00,
2013-01-26 12:32:00,57.0,41.0,30.05,WNW,283,1.0,9.0,56,0.00,,,0.00,,2013-01-26 20:32:00,
2013-01-26 12:41:00,57.0,41.0,30.05,WNW,283,1.0,9.0,56,0.00,,,0.00,,2013-01-26 20:41:00,
2013-01-26 12:52:00,57.0,41.0,30.05,WNW,283,1.0,9.0,56,0.00,,,0.00,,2013-01-26 20:52:00,
2013-01-26 13:02:00,59.0,43.0,30.04,NNW,332,0.0,6.0,55,0.00,,,0.00,,2013-01-26 21:02:00,
2013-01-26 13:11:00,59.0,43.0,30.04,NNW,332,0.0,6.0,55,0.00,,,0.00,,2013-01-26 21:11:00,
2013-01-26 13:22:00,58.0,41.0,30.03,NW,315,1.0,7.0,54,0.00,,,0.00,,2013-01-26 21:22:00,
2013-01-26 13:32:00,58.0,41.0,30.03,NW,315,1.0,7.0,54,0.00,,,0.00,,2013-01-26 21:32:00,
2013-01-26 13:42:00,58.0,41.0,30.03,NW,315,1.0,7.0,54,0.00,,,0.00,,2013-01-26 21:42:00,
2013-01-26 13:51:00,58.0,41.0,30.03,NW,315,1.0,7.0,54,0.00,,,0.00,,2013-01-26 21:51:00,
2013-01-26 14:22:00,58.0,43.0,30.04,NNW,334,0.0,9.0,58,0.00,,,0.00,,2013-01-26 22:22:00,
2013-01-26 14:32:00,58.0,44.0,30.04,West,272,0.0,9.0,59,0.00,,,0.00,,2013-01-26 22:32:00,
2013-01-26 14:42:00,58.0,44.0,30.04,West,272,0.0,9.0,59,0.00,,,0.00,,2013-01-26 22:42:00,
2013-01-26 14:52:00,58.0,44.0,30.04,West,272,0.0,9.0,59,0.00,,,0.00,,2013-01-26 22:52:00,
2013-01-26 15:01:00,57.0,42.0,30.05,WSW,246,1.0,8.0,57,0.00,,,0.00,,2013-01-26 23:01:00,
2013-01-26 15:11:00,57.0,42.0,30.05,WSW,246,1.0,8.0,57,0.00,,,0.00,,2013-01-26 23:11:00,
2013-01-26 15:21:00,57.0,42.0,30.05,North,355,0.0,9.0,58,0.00,,,0.00,,2013-01-26 23:21:00,
2013-01-26 15:32:00,57.0,42.0,30.05,North,355,0.0,9.0,58,0.00,,,0.00,,2013-01-26 23:32:00,
2013-01-26 15:41:00,57.0,42.0,30.05,North,355,0.0,9.0,58,0.00,,,0.00,,2013-01-26 23:41:00,
2013-01-26 15:52:00,56.0,41.0,30.05,SW,232,1.0,7.0,56,0.00,,,0.00,,2013-01-26 23:52:00,
2013-01-26 16:02:00,54.0,41.0,30.05,NW,307,2.0,9.0,61,0.00,,,0.00,,2013-01-27 00:02:00,
2013-01-26 16:11:00,54.0,41.0,30.05,NW,307,2.0,9.0,61,0.00,,,0.00,,2013-01-27 00:11:00,
2013-01-26 16:21:00,54.0,41.0,30.05,WNW,294,0.0,9.0,61,0.00,,,0.00,,2013-01-27 00:21:00,
2013-01-26 16:32:00,53.0,40.0,30.05,West,261,2.0,11.0,61,0.00,,,0.00,,2013-01-27 00:32:00,
2013-01-26 16:41:00,53.0,40.0,30.05,West,261,2.0,11.0,61,0.00,,,0.00,,2013-01-27 00:41:00,
2013-01-26 16:52:00,52.0,40.0,30.05,WSW,257,0.0,8.0,63,0.00,,,0.00,,2013-01-27 00:52:00,
2013-01-26 17:01:00,52.0,40.0,30.05,WSW,254,0.0,5.0,64,0.00,,,0.00,,2013-01-27 01:01:00,
2013-01-26 17:11:00,52.0,40.0,30.05,WSW,254,0.0,5.0,64,0.00,,,0.00,,2013-01-27 01:11:00,
2013-01-26 17:22:00,51.0,40.0,30.06,WSW,244,0.0,1.0,66,0.00,,,0.00,,2013-01-27 01:22:00,
2013-01-26 17:31:00,51.0,40.0,30.06,West,262,0.0,3.0,67,0.00,,,0.00,,2013-01-27 01:31:00,
2013-01-26 17:41:00,51.0,40.0,30.06,West,262,0.0,3.0,67,0.00,,,0.00,,2013-01-27 01:41:00,
2013-01-26 17:52:00,50.0,40.0,30.06,West,269,0.0,0.0,69,0.00,,,0.00,,2013-01-27 01:52:00,
2013-01-26 18:01:00,50.0,40.0,30.06,West,269,0.0,0.0,69,0.00,,,0.00,,2013-01-27 02:01:00,
2013-01-26 18:11:00,50.0,40.0,30.06,West,269,0.0,0.0,69,0.00,,,0.00,,2013-01-27 02:11:00,
2013-01-26 18:21:00,49.0,40.0,30.07,West,269,0.0,1.0,71,0.00,,,0.00,,2013-01-27 02:21:00,
2013-01-26 18:31:00,49.0,40.0,30.07,West,269,0.0,1.0,71,0.00,,,0.00,,2013-01-27 02:31:00,
2013-01-26 18:42:00,49.0,40.0,30.07,West,269,0.0,1.0,71,0.00,,,0.00,,2013-01-27 02:42:00,
2013-01-26 18:52:00,48.0,40.0,30.08,West,271,0.0,2.0,73,0.00,,,0.00,,2013-01-27 02:52:00,
2013-01-26 19:01:00,48.0,40.0,30.08,WSW,248,0.0,1.0,74,0.00,,,0.00,,2013-01-27 03:01:00,
2013-01-26 19:11:00,48.0,40.0,30.08,WSW,248,0.0,1.0,74,0.00,,,0.00,,2013-01-27 03:11:00,
2013-01-26 19:21:00,47.0,39.0,30.08,West,277,0.0,2.0,75,0.00,,,0.00,,2013-01-27 03:21:00,
2013-01-26 19:31:00,47.0,39.0,30.09,West,275,0.0,0.0,75,0.00,,,0.00,,2013-01-27 03:31:00,
2013-01-26 19:41:00,47.0,39.0,30.09,West,275,0.0,0.0,75,0.00,,,0.00,,2013-01-27 03:41:00,
2013-01-26 19:51:00,47.0,39.0,30.09,West,275,0.0,0.0,75,0.00,,,0.00,,2013-01-27 03:51:00,
2013-01-26 20:01:00,46.0,39.0,30.09,West,274,0.0,0.0,76,0.00,,,0.00,,2013-01-27 04:01:00,
2013-01-26 20:11:00,46.0,39.0,30.09,West,274,0.0,0.0,76,0.00,,,0.00,,2013-01-27 04:11:00,
2013-01-26 20:21:00,46.0,39.0,30.09,West,274,0.0,0.0,76,0.00,,,0.00,,2013-01-27 04:21:00,
2013-01-26 20:31:00,46.0,39.0,30.09,West,274,0.0,0.0,77,0.00,,,0.00,,2013-01-27 04:31:00,
2013-01-26 20:41:00,46.0,39.0,30.09,West,274,0.0,0.0,77,0.00,,,0.00,,2013-01-27 04:41:00,
2013-01-26 20:52:00,46.0,39.0,30.09,West,274,0.0,0.0,77,0.00,,,0.00,,2013-01-27 04:52:00,
2013-01-26 21:03:00,45.0,39.0,30.09,West,274,0.0,0.0,78,0.00,,,0.00,,2013-01-27 05:03:00,
2013-01-26 21:11:00,45.0,39.0,30.09,West,274,0.0,0.0,78,0.00,,,0.00,,2013-01-27 05:11:00,
2013-01-26 21:22:00,45.0,39.0,30.10,West,274,0.0,0.0,79,0.00,,,0.00,,2013-01-27 05:22:00,
2013-01-26 21:31:00,45.0,39.0,30.10,West,273,0.0,0.0,79,0.00,,,0.00,,2013-01-27 05:31:00,
2013-01-26 21:41:00,45.0,39.0,30.10,West,273,0.0,0.0,79,0.00,,,0.00,,2013-01-27 05:41:00,
2013-01-26 21:51:00,44.0,38.0,30.10,West,267,0.0,0.0,80,0.00,,,0.00,,2013-01-27 05:51:00,
2013-01-26 22:01:00,44.0,38.0,30.11,West,267,0.0,0.0,80,0.00,,,0.00,,2013-01-27 06:01:00,
2013-01-26 22:11:00,44.0,38.0,30.11,West,267,0.0,0.0,80,0.00,,,0.00,,2013-01-27 06:11:00,
2013-01-26 22:21:00,44.0,38.0,30.11,West,267,0.0,0.0,80,0.00,,,0.00,,2013-01-27 06:21:00,
2013-01-26 22:31:00,44.0,38.0,30.11,West,267,0.0,0.0,80,0.00,,,0.00,,2013-01-27 06:31:00,
2013-01-26 22:41:00,44.0,38.0,30.11,West,267,0.0,0.0,80,0.00,,,0.00,,2013-01-27 06:41:00,
2013-01-26 22:52:00,43.0,38.0,30.11,West,267,0.0,0.0,81,0.00,,,0.00,,2013-01-27 06:52:00,
2013-01-26 23:01:00,43.0,38.0,30.11,West,267,0.0,0.0,81,0.00,,,0.00,,2013-01-27 07:01:00,
2013-01-26 23:13:00,43.0,38.0,30.11,West,267,0.0,0.0,81,0.00,,,0.00,,2013-01-27 07:13:00,
2013-01-26 23:21:00,43.0,38.0,30.12,West,267,0.0,0.0,82,0.00,,,0.00,,2013-01-27 07:21:00,
2013-01-26 23:31:00,43.0,38.0,30.12,West,267,0.0,0.0,82,0.00,,,0.00,,2013-01-27 07:31:00,
2013-01-26 23:41:00,43.0,38.0,30.12,West,267,0.0,0.0,82,0.00,,,0.00,,2013-01-27 07:41:00,
2013-01-26 23:52:00,43.0,38.0,30.12,West,267,0.0,0.0,83,0.00,,,0.00,,2013-01-27 07:52:00,